sensor_id;sensor_type;location;lat;lon;timestamp;P1;durP1;ratioP1;P2;durP2;ratioP2
23617;SDS011;18207;32.078;34.818;2024-01-06T00:01:45;1.80;;;1.70;;
23617;SDS011;18207;32.078;34.818;2024-01-06T00:04:15;1.65;;;1.55;;
23617;SDS011;18207;32.078;34.818;2024-01-06T00:06:45;1.65;;;1.55;;
23617;SDS011;18207;32.078;34.818;2024-01-06T00:09:17;1.70;;;1.60;;
23617;SDS011;18207;32.078;34.818;2024-01-06T00:11:46;1.70;;;1.60;;
23617;SDS011;18207;32.078;34.818;2024-01-06T00:14:16;1.63;;;1.52;;
23617;SDS011;18207;32.078;34.818;2024-01-06T00:16:46;2.40;;;1.58;;
23617;SDS011;18207;32.078;34.818;2024-01-06T00:19:16;1.80;;;1.70;;
23617;SDS011;18207;32.078;34.818;2024-01-06T00:21:46;1.48;;;1.40;;
23617;SDS011;18207;32.078;34.818;2024-01-06T00:24:18;1.65;;;1.55;;
23617;SDS011;18207;32.078;34.818;2024-01-06T00:26:48;1.70;;;1.55;;
23617;SDS011;18207;32.078;34.818;2024-01-06T00:29:17;1.60;;;1.50;;
23617;SDS011;18207;32.078;34.818;2024-01-06T00:31:47;2.03;;;1.80;;
23617;SDS011;18207;32.078;34.818;2024-01-06T00:34:17;1.63;;;1.52;;
23617;SDS011;18207;32.078;34.818;2024-01-06T00:36:47;2.05;;;1.65;;
23617;SDS011;18207;32.078;34.818;2024-01-06T00:39:19;1.60;;;1.50;;
23617;SDS011;18207;32.078;34.818;2024-01-06T00:41:49;1.73;;;1.52;;
23617;SDS011;18207;32.078;34.818;2024-01-06T00:44:19;2.03;;;1.55;;
23617;SDS011;18207;32.078;34.818;2024-01-06T00:46:49;1.80;;;1.70;;
23617;SDS011;18207;32.078;34.818;2024-01-06T00:49:18;1.35;;;1.25;;
23617;SDS011;18207;32.078;34.818;2024-01-06T00:51:48;1.73;;;1.58;;
23617;SDS011;18207;32.078;34.818;2024-01-06T00:54:20;1.63;;;1.52;;
23617;SDS011;18207;32.078;34.818;2024-01-06T00:56:50;1.20;;;1.20;;
23617;SDS011;18207;32.078;34.818;2024-01-06T00:59:23;1.70;;;1.60;;
23617;SDS011;18207;32.078;34.818;2024-01-06T01:01:54;1.55;;;1.45;;
23617;SDS011;18207;32.078;34.818;2024-01-06T01:04:24;1.20;;;1.20;;
23617;SDS011;18207;32.078;34.818;2024-01-06T01:06:54;1.42;;;1.33;;
23617;SDS011;18207;32.078;34.818;2024-01-06T01:09:26;1.42;;;1.40;;
23617;SDS011;18207;32.078;34.818;2024-01-06T01:11:56;1.58;;;1.48;;
23617;SDS011;18207;32.078;34.818;2024-01-06T01:14:26;1.70;;;1.60;;
23617;SDS011;18207;32.078;34.818;2024-01-06T01:16:56;1.60;;;1.50;;
23617;SDS011;18207;32.078;34.818;2024-01-06T01:19:26;1.50;;;1.40;;
23617;SDS011;18207;32.078;34.818;2024-01-06T01:21:56;1.30;;;1.20;;
23617;SDS011;18207;32.078;34.818;2024-01-06T01:24:28;1.60;;;1.50;;
23617;SDS011;18207;32.078;34.818;2024-01-06T01:26:58;1.13;;;1.13;;
23617;SDS011;18207;32.078;34.818;2024-01-06T01:29:28;1.42;;;1.33;;
23617;SDS011;18207;32.078;34.818;2024-01-06T01:31:58;1.50;;;1.40;;
23617;SDS011;18207;32.078;34.818;2024-01-06T01:34:28;1.30;;;1.30;;
23617;SDS011;18207;32.078;34.818;2024-01-06T01:36:59;1.33;;;1.33;;
23617;SDS011;18207;32.078;34.818;2024-01-06T01:39:31;1.80;;;1.40;;
23617;SDS011;18207;32.078;34.818;2024-01-06T01:42:01;1.27;;;1.27;;
23617;SDS011;18207;32.078;34.818;2024-01-06T01:44:31;1.40;;;1.30;;
23617;SDS011;18207;32.078;34.818;2024-01-06T01:47:02;1.60;;;1.50;;
23617;SDS011;18207;32.078;34.818;2024-01-06T01:49:33;1.63;;;1.52;;
23617;SDS011;18207;32.078;34.818;2024-01-06T01:52:04;1.30;;;1.20;;
23617;SDS011;18207;32.078;34.818;2024-01-06T01:54:36;1.65;;;1.55;;
23617;SDS011;18207;32.078;34.818;2024-01-06T01:57:06;1.77;;;1.67;;
23617;SDS011;18207;32.078;34.818;2024-01-06T01:59:36;1.73;;;1.60;;
23617;SDS011;18207;32.078;34.818;2024-01-06T02:02:06;1.98;;;1.45;;
23617;SDS011;18207;32.078;34.818;2024-01-06T02:04:37;1.60;;;1.50;;
23617;SDS011;18207;32.078;34.818;2024-01-06T02:07:07;1.55;;;1.45;;
23617;SDS011;18207;32.078;34.818;2024-01-06T02:09:39;1.50;;;1.40;;
23617;SDS011;18207;32.078;34.818;2024-01-06T02:12:09;1.65;;;1.55;;
23617;SDS011;18207;32.078;34.818;2024-01-06T02:14:39;1.42;;;1.30;;
23617;SDS011;18207;32.078;34.818;2024-01-06T02:17:12;1.60;;;1.50;;
23617;SDS011;18207;32.078;34.818;2024-01-06T02:19:42;1.48;;;1.38;;
23617;SDS011;18207;32.078;34.818;2024-01-06T02:22:14;1.52;;;1.33;;
23617;SDS011;18207;32.078;34.818;2024-01-06T02:24:43;1.40;;;1.30;;
23617;SDS011;18207;32.078;34.818;2024-01-06T02:27:14;1.40;;;1.30;;
23617;SDS011;18207;32.078;34.818;2024-01-06T02:29:44;1.40;;;1.30;;
23617;SDS011;18207;32.078;34.818;2024-01-06T02:32:13;1.38;;;1.27;;
23617;SDS011;18207;32.078;34.818;2024-01-06T02:34:43;1.50;;;1.40;;
23617;SDS011;18207;32.078;34.818;2024-01-06T02:37:15;1.40;;;1.30;;
23617;SDS011;18207;32.078;34.818;2024-01-06T02:39:45;1.27;;;1.17;;
23617;SDS011;18207;32.078;34.818;2024-01-06T02:42:15;1.15;;;1.15;;
23617;SDS011;18207;32.078;34.818;2024-01-06T02:44:45;1.30;;;1.20;;
23617;SDS011;18207;32.078;34.818;2024-01-06T02:47:15;1.38;;;1.27;;
23617;SDS011;18207;32.078;34.818;2024-01-06T02:49:45;1.33;;;1.23;;
23617;SDS011;18207;32.078;34.818;2024-01-06T02:52:16;1.25;;;1.25;;
23617;SDS011;18207;32.078;34.818;2024-01-06T02:54:47;1.42;;;1.33;;
23617;SDS011;18207;32.078;34.818;2024-01-06T02:57:16;1.42;;;1.33;;
23617;SDS011;18207;32.078;34.818;2024-01-06T02:59:47;1.42;;;1.38;;
23617;SDS011;18207;32.078;34.818;2024-01-06T03:02:17;1.38;;;1.20;;
23617;SDS011;18207;32.078;34.818;2024-01-06T03:04:49;1.35;;;1.25;;
23617;SDS011;18207;32.078;34.818;2024-01-06T03:07:21;1.48;;;1.38;;
23617;SDS011;18207;32.078;34.818;2024-01-06T03:09:51;1.40;;;1.27;;
23617;SDS011;18207;32.078;34.818;2024-01-06T03:12:21;1.45;;;1.38;;
23617;SDS011;18207;32.078;34.818;2024-01-06T03:14:51;1.60;;;1.30;;
23617;SDS011;18207;32.078;34.818;2024-01-06T03:17:21;1.40;;;1.30;;
23617;SDS011;18207;32.078;34.818;2024-01-06T03:19:50;1.60;;;1.50;;
23617;SDS011;18207;32.078;34.818;2024-01-06T03:22:22;1.58;;;1.48;;
23617;SDS011;18207;32.078;34.818;2024-01-06T03:24:52;1.60;;;1.50;;
23617;SDS011;18207;32.078;34.818;2024-01-06T03:27:22;1.35;;;1.35;;
23617;SDS011;18207;32.078;34.818;2024-01-06T03:29:52;1.25;;;1.25;;
23617;SDS011;18207;32.078;34.818;2024-01-06T03:32:22;1.48;;;1.38;;
23617;SDS011;18207;32.078;34.818;2024-01-06T03:34:55;1.60;;;1.50;;
23617;SDS011;18207;32.078;34.818;2024-01-06T03:37:27;1.70;;;1.60;;
23617;SDS011;18207;32.078;34.818;2024-01-06T03:39:57;1.50;;;1.40;;
23617;SDS011;18207;32.078;34.818;2024-01-06T03:42:27;1.80;;;1.70;;
23617;SDS011;18207;32.078;34.818;2024-01-06T03:44:57;1.55;;;1.45;;
23617;SDS011;18207;32.078;34.818;2024-01-06T03:47:26;1.35;;;1.30;;
23617;SDS011;18207;32.078;34.818;2024-01-06T03:49:56;1.38;;;1.27;;
23617;SDS011;18207;32.078;34.818;2024-01-06T03:52:28;1.48;;;1.38;;
23617;SDS011;18207;32.078;34.818;2024-01-06T03:54:58;1.60;;;1.50;;
23617;SDS011;18207;32.078;34.818;2024-01-06T03:57:28;1.50;;;1.40;;
23617;SDS011;18207;32.078;34.818;2024-01-06T03:59:58;1.92;;;1.60;;
23617;SDS011;18207;32.078;34.818;2024-01-06T04:02:28;2.05;;;1.95;;
23617;SDS011;18207;32.078;34.818;2024-01-06T04:04:57;1.80;;;1.70;;
23617;SDS011;18207;32.078;34.818;2024-01-06T04:07:29;2.00;;;1.90;;
23617;SDS011;18207;32.078;34.818;2024-01-06T04:09:59;2.60;;;2.40;;
23617;SDS011;18207;32.078;34.818;2024-01-06T04:12:29;2.25;;;2.05;;
23617;SDS011;18207;32.078;34.818;2024-01-06T04:14:59;2.03;;;1.92;;
23617;SDS011;18207;32.078;34.818;2024-01-06T04:17:29;1.85;;;1.75;;
23617;SDS011;18207;32.078;34.818;2024-01-06T04:19:59;1.90;;;1.80;;
23617;SDS011;18207;32.078;34.818;2024-01-06T04:22:33;1.92;;;1.80;;
23617;SDS011;18207;32.078;34.818;2024-01-06T04:25:03;1.77;;;1.67;;
23617;SDS011;18207;32.078;34.818;2024-01-06T04:27:33;2.00;;;1.90;;
23617;SDS011;18207;32.078;34.818;2024-01-06T04:30:03;1.95;;;1.75;;
23617;SDS011;18207;32.078;34.818;2024-01-06T04:32:35;2.00;;;1.77;;
23617;SDS011;18207;32.078;34.818;2024-01-06T04:35:05;2.15;;;1.95;;
23617;SDS011;18207;32.078;34.818;2024-01-06T04:37:40;2.00;;;1.80;;
23617;SDS011;18207;32.078;34.818;2024-01-06T04:40:10;1.80;;;1.67;;
23617;SDS011;18207;32.078;34.818;2024-01-06T04:42:47;1.80;;;1.70;;
23617;SDS011;18207;32.078;34.818;2024-01-06T04:45:19;2.60;;;2.40;;
23617;SDS011;18207;32.078;34.818;2024-01-06T04:47:51;2.22;;;2.03;;
23617;SDS011;18207;32.078;34.818;2024-01-06T04:50:21;2.15;;;2.00;;
23617;SDS011;18207;32.078;34.818;2024-01-06T04:52:52;1.92;;;1.83;;
23617;SDS011;18207;32.078;34.818;2024-01-06T04:55:22;2.40;;;2.20;;
23617;SDS011;18207;32.078;34.818;2024-01-06T04:57:52;2.50;;;2.28;;
23617;SDS011;18207;32.078;34.818;2024-01-06T05:00:22;2.35;;;2.17;;
23617;SDS011;18207;32.078;34.818;2024-01-06T05:02:53;2.25;;;2.05;;
23617;SDS011;18207;32.078;34.818;2024-01-06T05:05:23;2.25;;;2.05;;
23617;SDS011;18207;32.078;34.818;2024-01-06T05:07:54;2.20;;;2.00;;
23617;SDS011;18207;32.078;34.818;2024-01-06T05:10:25;1.95;;;1.85;;
23617;SDS011;18207;32.078;34.818;2024-01-06T05:12:55;2.03;;;1.92;;
23617;SDS011;18207;32.078;34.818;2024-01-06T05:15:24;2.20;;;2.00;;
23617;SDS011;18207;32.078;34.818;2024-01-06T05:17:55;2.35;;;2.10;;
23617;SDS011;18207;32.078;34.818;2024-01-06T05:20:25;1.77;;;1.67;;
23617;SDS011;18207;32.078;34.818;2024-01-06T05:22:56;1.95;;;1.80;;
23617;SDS011;18207;32.078;34.818;2024-01-06T05:25:26;2.22;;;1.80;;
23617;SDS011;18207;32.078;34.818;2024-01-06T05:27:56;2.13;;;1.92;;
23617;SDS011;18207;32.078;34.818;2024-01-06T05:30:26;1.77;;;1.67;;
23617;SDS011;18207;32.078;34.818;2024-01-06T05:32:56;2.03;;;1.85;;
23617;SDS011;18207;32.078;34.818;2024-01-06T05:35:26;1.65;;;1.55;;
23617;SDS011;18207;32.078;34.818;2024-01-06T05:37:58;2.13;;;1.90;;
23617;SDS011;18207;32.078;34.818;2024-01-06T05:40:28;1.80;;;1.70;;
23617;SDS011;18207;32.078;34.818;2024-01-06T05:42:58;1.95;;;1.80;;
23617;SDS011;18207;32.078;34.818;2024-01-06T05:45:28;2.15;;;2.00;;
23617;SDS011;18207;32.078;34.818;2024-01-06T05:47:58;2.13;;;1.92;;
23617;SDS011;18207;32.078;34.818;2024-01-06T05:50:28;1.98;;;1.88;;
23617;SDS011;18207;32.078;34.818;2024-01-06T05:53:00;2.00;;;1.90;;
23617;SDS011;18207;32.078;34.818;2024-01-06T05:55:30;1.80;;;1.70;;
23617;SDS011;18207;32.078;34.818;2024-01-06T05:58:00;1.92;;;1.83;;
23617;SDS011;18207;32.078;34.818;2024-01-06T06:00:30;2.40;;;2.20;;
23617;SDS011;18207;32.078;34.818;2024-01-06T06:03:00;2.90;;;2.30;;
23617;SDS011;18207;32.078;34.818;2024-01-06T06:05:30;2.13;;;1.90;;
23617;SDS011;18207;32.078;34.818;2024-01-06T06:08:02;1.90;;;1.80;;
23617;SDS011;18207;32.078;34.818;2024-01-06T06:10:33;1.98;;;1.83;;
23617;SDS011;18207;32.078;34.818;2024-01-06T06:13:18;1.92;;;1.83;;
23617;SDS011;18207;32.078;34.818;2024-01-06T06:15:49;1.88;;;1.77;;
23617;SDS011;18207;32.078;34.818;2024-01-06T06:18:19;2.20;;;2.00;;
23617;SDS011;18207;32.078;34.818;2024-01-06T06:20:50;1.92;;;1.83;;
23617;SDS011;18207;32.078;34.818;2024-01-06T06:23:21;1.90;;;1.80;;
23617;SDS011;18207;32.078;34.818;2024-01-06T06:25:52;2.00;;;1.90;;
23617;SDS011;18207;32.078;34.818;2024-01-06T06:28:24;1.73;;;1.63;;
23617;SDS011;18207;32.078;34.818;2024-01-06T06:30:54;2.15;;;1.95;;
23617;SDS011;18207;32.078;34.818;2024-01-06T06:33:24;2.20;;;2.00;;
23617;SDS011;18207;32.078;34.818;2024-01-06T06:35:55;2.40;;;2.20;;
23617;SDS011;18207;32.078;34.818;2024-01-06T06:38:26;2.30;;;2.10;;
23617;SDS011;18207;32.078;34.818;2024-01-06T06:41:01;2.10;;;2.00;;
23617;SDS011;18207;32.078;34.818;2024-01-06T06:43:43;2.30;;;2.13;;
23617;SDS011;18207;32.078;34.818;2024-01-06T06:46:13;2.22;;;2.03;;
23617;SDS011;18207;32.078;34.818;2024-01-06T06:48:42;2.13;;;1.90;;
23617;SDS011;18207;32.078;34.818;2024-01-06T06:51:13;2.10;;;2.00;;
23617;SDS011;18207;32.078;34.818;2024-01-06T06:53:45;2.10;;;1.90;;
23617;SDS011;18207;32.078;34.818;2024-01-06T06:56:24;2.33;;;1.90;;
23617;SDS011;18207;32.078;34.818;2024-01-06T06:58:54;2.40;;;2.20;;
23617;SDS011;18207;32.078;34.818;2024-01-06T07:01:24;2.70;;;2.20;;
23617;SDS011;18207;32.078;34.818;2024-01-06T07:03:53;2.30;;;2.10;;
23617;SDS011;18207;32.078;34.818;2024-01-06T07:06:23;2.30;;;2.10;;
23617;SDS011;18207;32.078;34.818;2024-01-06T07:08:55;2.28;;;2.08;;
23617;SDS011;18207;32.078;34.818;2024-01-06T07:11:25;2.22;;;2.08;;
23617;SDS011;18207;32.078;34.818;2024-01-06T07:13:55;2.97;;;2.78;;
23617;SDS011;18207;32.078;34.818;2024-01-06T07:16:25;2.67;;;2.47;;
23617;SDS011;18207;32.078;34.818;2024-01-06T07:18:55;2.95;;;2.67;;
23617;SDS011;18207;32.078;34.818;2024-01-06T07:21:25;2.70;;;2.50;;
23617;SDS011;18207;32.078;34.818;2024-01-06T07:23:56;2.63;;;2.42;;
23617;SDS011;18207;32.078;34.818;2024-01-06T07:26:27;2.40;;;2.22;;
23617;SDS011;18207;32.078;34.818;2024-01-06T07:28:57;2.22;;;2.13;;
23617;SDS011;18207;32.078;34.818;2024-01-06T07:31:26;2.47;;;2.28;;
23617;SDS011;18207;32.078;34.818;2024-01-06T07:33:57;2.25;;;2.13;;
23617;SDS011;18207;32.078;34.818;2024-01-06T07:36:27;3.08;;;2.30;;
23617;SDS011;18207;32.078;34.818;2024-01-06T07:38:59;2.40;;;2.20;;
23617;SDS011;18207;32.078;34.818;2024-01-06T07:41:29;2.50;;;2.15;;
23617;SDS011;18207;32.078;34.818;2024-01-06T07:44:00;2.85;;;2.20;;
23617;SDS011;18207;32.078;34.818;2024-01-06T07:46:30;2.70;;;2.50;;
23617;SDS011;18207;32.078;34.818;2024-01-06T07:49:02;2.30;;;2.10;;
23617;SDS011;18207;32.078;34.818;2024-01-06T07:51:32;2.30;;;2.10;;
23617;SDS011;18207;32.078;34.818;2024-01-06T07:54:04;2.38;;;2.17;;
23617;SDS011;18207;32.078;34.818;2024-01-06T07:56:37;2.50;;;2.30;;
23617;SDS011;18207;32.078;34.818;2024-01-06T07:59:07;2.10;;;2.00;;
23617;SDS011;18207;32.078;34.818;2024-01-06T08:01:42;1.95;;;1.85;;
23617;SDS011;18207;32.078;34.818;2024-01-06T08:04:12;1.95;;;1.85;;
23617;SDS011;18207;32.078;34.818;2024-01-06T08:06:42;2.25;;;1.85;;
23617;SDS011;18207;32.078;34.818;2024-01-06T08:09:14;2.45;;;2.25;;
23617;SDS011;18207;32.078;34.818;2024-01-06T08:11:44;2.60;;;2.40;;
23617;SDS011;18207;32.078;34.818;2024-01-06T08:14:18;2.55;;;2.35;;
23617;SDS011;18207;32.078;34.818;2024-01-06T08:16:48;2.45;;;2.20;;
23617;SDS011;18207;32.078;34.818;2024-01-06T08:19:18;2.38;;;2.17;;
23617;SDS011;18207;32.078;34.818;2024-01-06T08:21:48;2.03;;;1.92;;
23617;SDS011;18207;32.078;34.818;2024-01-06T08:24:19;1.92;;;1.83;;
23617;SDS011;18207;32.078;34.818;2024-01-06T08:26:49;2.10;;;1.90;;
23617;SDS011;18207;32.078;34.818;2024-01-06T08:29:19;1.60;;;1.50;;
23617;SDS011;18207;32.078;34.818;2024-01-06T08:31:49;1.75;;;1.65;;
23617;SDS011;18207;32.078;34.818;2024-01-06T08:34:21;1.58;;;1.45;;
23617;SDS011;18207;32.078;34.818;2024-01-06T08:36:54;1.77;;;1.67;;
23617;SDS011;18207;32.078;34.818;2024-01-06T08:39:26;1.50;;;1.40;;
23617;SDS011;18207;32.078;34.818;2024-01-06T08:41:56;1.58;;;1.30;;
23617;SDS011;18207;32.078;34.818;2024-01-06T08:44:28;1.52;;;1.40;;
23617;SDS011;18207;32.078;34.818;2024-01-06T08:46:58;1.30;;;1.23;;
23617;SDS011;18207;32.078;34.818;2024-01-06T08:49:32;1.42;;;1.33;;
23617;SDS011;18207;32.078;34.818;2024-01-06T08:52:03;1.73;;;1.60;;
23617;SDS011;18207;32.078;34.818;2024-01-06T08:54:35;1.80;;;1.70;;
23617;SDS011;18207;32.078;34.818;2024-01-06T08:57:05;1.60;;;1.50;;
23617;SDS011;18207;32.078;34.818;2024-01-06T08:59:35;1.83;;;1.70;;
23617;SDS011;18207;32.078;34.818;2024-01-06T09:02:07;1.70;;;1.60;;
23617;SDS011;18207;32.078;34.818;2024-01-06T09:04:36;1.63;;;1.50;;
23617;SDS011;18207;32.078;34.818;2024-01-06T09:07:06;2.00;;;1.58;;
23617;SDS011;18207;32.078;34.818;2024-01-06T09:09:39;2.00;;;1.70;;
23617;SDS011;18207;32.078;34.818;2024-01-06T09:12:09;1.70;;;1.52;;
23617;SDS011;18207;32.078;34.818;2024-01-06T09:14:39;1.52;;;1.42;;
23617;SDS011;18207;32.078;34.818;2024-01-06T09:17:09;2.33;;;1.67;;
23617;SDS011;18207;32.078;34.818;2024-01-06T09:19:39;1.50;;;1.40;;
23617;SDS011;18207;32.078;34.818;2024-01-06T09:22:16;1.50;;;1.40;;
23617;SDS011;18207;32.078;34.818;2024-01-06T09:24:47;1.35;;;1.27;;
23617;SDS011;18207;32.078;34.818;2024-01-06T09:27:17;1.33;;;1.30;;
23617;SDS011;18207;32.078;34.818;2024-01-06T09:29:48;2.85;;;1.40;;
23617;SDS011;18207;32.078;34.818;2024-01-06T09:32:18;1.48;;;1.38;;
23617;SDS011;18207;32.078;34.818;2024-01-06T09:34:50;1.58;;;1.48;;
23617;SDS011;18207;32.078;34.818;2024-01-06T09:37:20;1.75;;;1.60;;
23617;SDS011;18207;32.078;34.818;2024-01-06T09:39:52;1.50;;;1.40;;
23617;SDS011;18207;32.078;34.818;2024-01-06T09:42:22;1.60;;;1.50;;
23617;SDS011;18207;32.078;34.818;2024-01-06T09:44:52;1.67;;;1.52;;
23617;SDS011;18207;32.078;34.818;2024-01-06T09:47:22;1.55;;;1.45;;
23617;SDS011;18207;32.078;34.818;2024-01-06T09:49:56;1.70;;;1.60;;
23617;SDS011;18207;32.078;34.818;2024-01-06T09:52:32;1.73;;;1.60;;
23617;SDS011;18207;32.078;34.818;2024-01-06T09:55:08;3.30;;;1.83;;
23617;SDS011;18207;32.078;34.818;2024-01-06T09:57:40;1.40;;;1.33;;
23617;SDS011;18207;32.078;34.818;2024-01-06T10:00:13;1.88;;;1.70;;
23617;SDS011;18207;32.078;34.818;2024-01-06T10:02:46;2.00;;;1.80;;
23617;SDS011;18207;32.078;34.818;2024-01-06T10:05:18;1.70;;;1.60;;
23617;SDS011;18207;32.078;34.818;2024-01-06T10:07:48;1.60;;;1.50;;
23617;SDS011;18207;32.078;34.818;2024-01-06T10:10:19;1.60;;;1.50;;
23617;SDS011;18207;32.078;34.818;2024-01-06T10:12:52;1.60;;;1.50;;
23617;SDS011;18207;32.078;34.818;2024-01-06T10:15:23;1.50;;;1.40;;
23617;SDS011;18207;32.078;34.818;2024-01-06T10:17:54;1.25;;;1.20;;
23617;SDS011;18207;32.078;34.818;2024-01-06T10:20:24;1.40;;;1.30;;
23617;SDS011;18207;32.078;34.818;2024-01-06T10:22:58;2.22;;;1.30;;
23617;SDS011;18207;32.078;34.818;2024-01-06T10:25:36;1.60;;;1.50;;
23617;SDS011;18207;32.078;34.818;2024-01-06T10:28:06;1.48;;;1.35;;
23617;SDS011;18207;32.078;34.818;2024-01-06T10:30:39;1.83;;;1.50;;
23617;SDS011;18207;32.078;34.818;2024-01-06T10:33:10;1.60;;;1.50;;
23617;SDS011;18207;32.078;34.818;2024-01-06T10:35:41;1.77;;;1.35;;
23617;SDS011;18207;32.078;34.818;2024-01-06T10:38:12;1.50;;;1.40;;
23617;SDS011;18207;32.078;34.818;2024-01-06T10:40:57;1.60;;;1.50;;
23617;SDS011;18207;32.078;34.818;2024-01-06T10:43:29;1.50;;;1.40;;
23617;SDS011;18207;32.078;34.818;2024-01-06T10:46:17;1.50;;;1.40;;
23617;SDS011;18207;32.078;34.818;2024-01-06T10:48:48;1.30;;;1.25;;
23617;SDS011;18207;32.078;34.818;2024-01-06T10:51:20;1.55;;;1.45;;
23617;SDS011;18207;32.078;34.818;2024-01-06T10:53:53;1.23;;;1.13;;
23617;SDS011;18207;32.078;34.818;2024-01-06T10:56:28;1.52;;;1.42;;
23617;SDS011;18207;32.078;34.818;2024-01-06T10:58:59;1.30;;;1.20;;
23617;SDS011;18207;32.078;34.818;2024-01-06T11:01:32;1.50;;;1.40;;
23617;SDS011;18207;32.078;34.818;2024-01-06T11:04:04;1.60;;;1.50;;
23617;SDS011;18207;32.078;34.818;2024-01-06T11:06:34;1.63;;;1.30;;
23617;SDS011;18207;32.078;34.818;2024-01-06T11:09:10;1.48;;;1.38;;
23617;SDS011;18207;32.078;34.818;2024-01-06T11:11:49;1.85;;;1.30;;
23617;SDS011;18207;32.078;34.818;2024-01-06T11:14:20;1.17;;;1.08;;
23617;SDS011;18207;32.078;34.818;2024-01-06T11:16:52;1.55;;;1.30;;
23617;SDS011;18207;32.078;34.818;2024-01-06T11:19:42;1.20;;;1.10;;
23617;SDS011;18207;32.078;34.818;2024-01-06T11:22:26;0.95;;;0.95;;
23617;SDS011;18207;32.078;34.818;2024-01-06T11:25:03;1.30;;;1.20;;
23617;SDS011;18207;32.078;34.818;2024-01-06T11:27:37;1.05;;;1.05;;
23617;SDS011;18207;32.078;34.818;2024-01-06T11:30:08;1.40;;;1.27;;
23617;SDS011;18207;32.078;34.818;2024-01-06T11:32:50;1.40;;;1.30;;
23617;SDS011;18207;32.078;34.818;2024-01-06T11:35:22;1.20;;;1.20;;
23617;SDS011;18207;32.078;34.818;2024-01-06T11:37:54;1.45;;;1.35;;
23617;SDS011;18207;32.078;34.818;2024-01-06T11:40:33;2.35;;;1.33;;
23617;SDS011;18207;32.078;34.818;2024-01-06T11:43:07;1.40;;;1.30;;
23617;SDS011;18207;32.078;34.818;2024-01-06T11:45:40;1.30;;;1.20;;
23617;SDS011;18207;32.078;34.818;2024-01-06T11:48:11;1.20;;;1.15;;
23617;SDS011;18207;32.078;34.818;2024-01-06T11:50:41;1.60;;;1.40;;
23617;SDS011;18207;32.078;34.818;2024-01-06T11:53:11;1.40;;;1.30;;
23617;SDS011;18207;32.078;34.818;2024-01-06T11:55:42;1.35;;;1.25;;
23617;SDS011;18207;32.078;34.818;2024-01-06T11:58:15;1.55;;;1.30;;
23617;SDS011;18207;32.078;34.818;2024-01-06T12:00:54;2.13;;;1.30;;
23617;SDS011;18207;32.078;34.818;2024-01-06T12:03:25;1.45;;;1.35;;
23617;SDS011;18207;32.078;34.818;2024-01-06T12:06:01;1.42;;;1.33;;
23617;SDS011;18207;32.078;34.818;2024-01-06T12:08:33;1.60;;;1.50;;
23617;SDS011;18207;32.078;34.818;2024-01-06T12:11:03;1.20;;;1.10;;
23617;SDS011;18207;32.078;34.818;2024-01-06T12:13:36;1.45;;;1.35;;
23617;SDS011;18207;32.078;34.818;2024-01-06T12:16:06;1.40;;;1.30;;
23617;SDS011;18207;32.078;34.818;2024-01-06T12:18:37;1.10;;;1.10;;
23617;SDS011;18207;32.078;34.818;2024-01-06T12:21:07;1.00;;;1.00;;
23617;SDS011;18207;32.078;34.818;2024-01-06T12:23:37;1.20;;;1.10;;
23617;SDS011;18207;32.078;34.818;2024-01-06T12:26:07;1.20;;;1.10;;
23617;SDS011;18207;32.078;34.818;2024-01-06T12:28:39;1.27;;;1.02;;
23617;SDS011;18207;32.078;34.818;2024-01-06T12:31:09;1.30;;;1.20;;
23617;SDS011;18207;32.078;34.818;2024-01-06T12:33:40;1.20;;;1.10;;
23617;SDS011;18207;32.078;34.818;2024-01-06T12:36:10;1.45;;;1.35;;
23617;SDS011;18207;32.078;34.818;2024-01-06T12:38:52;0.95;;;0.95;;
23617;SDS011;18207;32.078;34.818;2024-01-06T12:41:23;0.98;;;0.98;;
23617;SDS011;18207;32.078;34.818;2024-01-06T12:43:55;1.10;;;1.00;;
23617;SDS011;18207;32.078;34.818;2024-01-06T12:46:25;1.10;;;1.00;;
23617;SDS011;18207;32.078;34.818;2024-01-06T12:48:56;0.90;;;0.90;;
23617;SDS011;18207;32.078;34.818;2024-01-06T12:51:26;1.35;;;1.25;;
23617;SDS011;18207;32.078;34.818;2024-01-06T12:53:56;0.98;;;0.98;;
23617;SDS011;18207;32.078;34.818;2024-01-06T12:56:26;0.88;;;0.88;;
23617;SDS011;18207;32.078;34.818;2024-01-06T12:58:58;1.55;;;1.08;;
23617;SDS011;18207;32.078;34.818;2024-01-06T13:01:29;1.20;;;1.10;;
23617;SDS011;18207;32.078;34.818;2024-01-06T13:03:59;1.10;;;1.00;;
23617;SDS011;18207;32.078;34.818;2024-01-06T13:06:29;1.27;;;1.13;;
23617;SDS011;18207;32.078;34.818;2024-01-06T13:08:59;0.82;;;0.82;;
23617;SDS011;18207;32.078;34.818;2024-01-06T13:11:33;0.90;;;0.90;;
23617;SDS011;18207;32.078;34.818;2024-01-06T13:14:06;1.27;;;1.08;;
23617;SDS011;18207;32.078;34.818;2024-01-06T13:16:36;0.75;;;0.75;;
23617;SDS011;18207;32.078;34.818;2024-01-06T13:19:06;0.90;;;0.90;;
23617;SDS011;18207;32.078;34.818;2024-01-06T13:21:36;0.90;;;0.90;;
23617;SDS011;18207;32.078;34.818;2024-01-06T13:24:07;1.02;;;1.00;;
23617;SDS011;18207;32.078;34.818;2024-01-06T13:26:37;1.20;;;1.00;;
23617;SDS011;18207;32.078;34.818;2024-01-06T13:29:09;1.00;;;1.00;;
23617;SDS011;18207;32.078;34.818;2024-01-06T13:31:40;1.08;;;1.00;;
23617;SDS011;18207;32.078;34.818;2024-01-06T13:34:10;1.08;;;1.02;;
23617;SDS011;18207;32.078;34.818;2024-01-06T13:36:40;1.02;;;1.02;;
23617;SDS011;18207;32.078;34.818;2024-01-06T13:39:10;1.20;;;1.10;;
23617;SDS011;18207;32.078;34.818;2024-01-06T13:41:47;1.38;;;1.00;;
23617;SDS011;18207;32.078;34.818;2024-01-06T13:44:19;0.95;;;0.95;;
23617;SDS011;18207;32.078;34.818;2024-01-06T13:46:50;1.08;;;0.98;;
23617;SDS011;18207;32.078;34.818;2024-01-06T13:49:21;1.17;;;1.08;;
23617;SDS011;18207;32.078;34.818;2024-01-06T13:51:52;1.38;;;1.20;;
23617;SDS011;18207;32.078;34.818;2024-01-06T13:54:22;0.95;;;0.95;;
23617;SDS011;18207;32.078;34.818;2024-01-06T13:56:53;1.20;;;1.08;;
23617;SDS011;18207;32.078;34.818;2024-01-06T13:59:25;1.27;;;1.10;;
23617;SDS011;18207;32.078;34.818;2024-01-06T14:01:55;1.30;;;1.20;;
23617;SDS011;18207;32.078;34.818;2024-01-06T14:04:25;1.00;;;0.90;;
23617;SDS011;18207;32.078;34.818;2024-01-06T14:06:55;1.05;;;0.98;;
23617;SDS011;18207;32.078;34.818;2024-01-06T14:09:30;1.00;;;1.00;;
23617;SDS011;18207;32.078;34.818;2024-01-06T14:12:01;1.65;;;1.10;;
23617;SDS011;18207;32.078;34.818;2024-01-06T14:14:34;0.98;;;0.90;;
23617;SDS011;18207;32.078;34.818;2024-01-06T14:17:04;1.20;;;1.10;;
23617;SDS011;18207;32.078;34.818;2024-01-06T14:19:34;1.25;;;1.15;;
23617;SDS011;18207;32.078;34.818;2024-01-06T14:22:04;1.20;;;1.10;;
23617;SDS011;18207;32.078;34.818;2024-01-06T14:24:34;1.02;;;1.02;;
23617;SDS011;18207;32.078;34.818;2024-01-06T14:27:04;1.10;;;1.00;;
23617;SDS011;18207;32.078;34.818;2024-01-06T14:29:36;1.10;;;1.00;;
23617;SDS011;18207;32.078;34.818;2024-01-06T14:32:07;0.95;;;0.95;;
23617;SDS011;18207;32.078;34.818;2024-01-06T14:34:37;1.23;;;1.13;;
23617;SDS011;18207;32.078;34.818;2024-01-06T14:37:07;0.88;;;0.88;;
23617;SDS011;18207;32.078;34.818;2024-01-06T14:39:37;1.38;;;1.27;;
23617;SDS011;18207;32.078;34.818;2024-01-06T14:42:08;1.23;;;1.08;;
23617;SDS011;18207;32.078;34.818;2024-01-06T14:44:40;1.13;;;0.98;;
23617;SDS011;18207;32.078;34.818;2024-01-06T14:47:10;1.13;;;1.13;;
23617;SDS011;18207;32.078;34.818;2024-01-06T14:49:40;1.17;;;1.17;;
23617;SDS011;18207;32.078;34.818;2024-01-06T14:52:10;1.30;;;1.20;;
23617;SDS011;18207;32.078;34.818;2024-01-06T14:54:40;1.25;;;1.17;;
23617;SDS011;18207;32.078;34.818;2024-01-06T14:57:10;0.85;;;0.85;;